createdAt,value
2022-08-03T00:00:01.716Z,92.80
2022-08-03T00:01:01.685Z,92.80
2022-08-03T00:02:01.667Z,92.90
2022-08-03T00:03:01.758Z,92.90
2022-08-03T00:04:01.683Z,92.60
2022-08-03T00:05:01.685Z,93.00
2022-08-03T00:06:04.368Z,92.69
2022-08-03T00:07:01.615Z,92.49
2022-08-03T00:08:01.600Z,92.49
2022-08-03T00:09:09.704Z,93.00
2022-08-03T00:10:01.584Z,92.60
2022-08-03T00:11:01.617Z,93.15
2022-08-03T00:12:01.649Z,93.24
2022-08-03T00:13:01.591Z,93.35
2022-08-03T00:14:01.563Z,93.35
2022-08-03T00:15:01.548Z,94.56
2022-08-03T00:16:01.525Z,94.06
2022-08-03T00:17:01.561Z,94.06
2022-08-03T00:18:01.500Z,94.15
2022-08-03T00:19:01.475Z,94.46
2022-08-03T00:20:01.478Z,94.56
2022-08-03T00:21:01.456Z,94.20
2022-08-03T00:22:01.501Z,94.50
2022-08-03T00:23:01.459Z,94.50
2022-08-03T00:24:01.439Z,94.26
2022-08-03T00:25:01.472Z,94.46
2022-08-03T00:26:01.428Z,94.56
2022-08-03T00:27:01.395Z,94.26
2022-08-03T00:28:01.437Z,94.56
2022-08-03T00:29:01.369Z,94.66
2022-08-03T00:30:01.355Z,95.17
2022-08-03T00:31:01.355Z,95.62
2022-08-03T00:32:01.387Z,95.51
2022-08-03T00:33:01.371Z,96.12
2022-08-03T00:34:03.360Z,95.92
2022-08-03T00:35:07.886Z,96.22
2022-08-03T00:36:02.308Z,96.12
2022-08-03T00:37:01.286Z,96.07
2022-08-03T00:38:01.277Z,96.67
2022-08-03T00:39:01.309Z,96.37
2022-08-03T00:40:01.246Z,96.57
2022-08-03T00:41:01.247Z,96.37
2022-08-03T00:42:01.220Z,96.67
2022-08-03T00:43:01.265Z,96.88
2022-08-03T00:44:01.207Z,96.27
2022-08-03T00:45:01.243Z,96.47
2022-08-03T00:46:01.223Z,96.47
2022-08-03T00:47:01.164Z,96.17
2022-08-03T00:48:01.167Z,96.47
2022-08-03T00:49:01.216Z,96.47
2022-08-03T00:50:01.179Z,96.37
2022-08-03T00:51:01.117Z,95.56
2022-08-03T00:52:01.110Z,95.15
2022-08-03T00:53:02.091Z,94.65
2022-08-03T00:54:01.098Z,95.46
2022-08-03T00:55:01.115Z,95.36
2022-08-03T00:56:01.120Z,95.42
2022-08-03T00:57:01.091Z,95.06
2022-08-03T00:58:01.034Z,95.01
2022-08-03T00:59:01.035Z,95.36
2022-08-03T01:00:01.021Z,95.76
2022-08-03T01:01:01.126Z,95.56
2022-08-03T01:02:01.019Z,95.66
2022-08-03T01:03:00.999Z,95.56
2022-08-03T01:04:00.980Z,95.76
2022-08-03T01:05:00.973Z,95.36
2022-08-03T01:06:00.951Z,95.46
2022-08-03T01:07:00.983Z,95.56
2022-08-03T01:08:00.967Z,95.06
2022-08-03T01:09:00.931Z,95.15
2022-08-03T01:10:00.901Z,95.36
2022-08-03T01:11:00.912Z,95.26
2022-08-03T01:12:01.912Z,95.36
2022-08-03T01:13:00.900Z,95.56
2022-08-03T01:14:04.563Z,95.86
2022-08-03T01:15:01.863Z,95.36
2022-08-03T01:16:00.840Z,95.36
2022-08-03T01:17:00.858Z,95.15
2022-08-03T01:18:00.928Z,94.85
2022-08-03T01:19:00.831Z,95.10
2022-08-03T01:20:00.807Z,94.90
2022-08-03T01:21:00.778Z,95.20
2022-08-03T01:22:00.785Z,95.50
2022-08-03T01:23:00.797Z,95.40
2022-08-03T01:24:00.771Z,95.40
2022-08-03T01:25:00.737Z,95.61
2022-08-03T01:26:00.718Z,95.40
2022-08-03T01:27:00.755Z,95.81
2022-08-03T01:28:00.696Z,96.15
2022-08-03T01:29:00.703Z,95.30
2022-08-03T01:30:00.700Z,96.01
2022-08-03T01:31:00.679Z,95.95
2022-08-03T01:32:59.109Z,96.15
2022-08-03T01:33:02.172Z,96.56
2022-08-03T01:34:00.637Z,96.46
2022-08-03T01:35:00.634Z,96.26
2022-08-03T01:36:00.612Z,96.06
2022-08-03T01:37:00.596Z,95.95
2022-08-03T01:38:00.586Z,96.66
2022-08-03T01:39:00.612Z,96.46
2022-08-03T01:40:00.586Z,96.77
2022-08-03T01:41:00.570Z,97.07
2022-08-03T01:42:00.582Z,96.56
2022-08-03T01:43:00.529Z,96.87
2022-08-03T01:44:27.726Z,96.77
2022-08-03T01:45:01.524Z,96.56
2022-08-03T01:46:00.549Z,96.36
2022-08-03T01:47:00.548Z,96.26
2022-08-03T01:48:00.517Z,95.55
2022-08-03T01:49:00.558Z,95.86
2022-08-03T01:50:01.463Z,95.65
2022-08-03T01:51:00.480Z,96.31
2022-08-03T01:52:04.394Z,95.45
2022-08-03T01:53:00.425Z,95.30
2022-08-03T01:54:00.463Z,94.90
2022-08-03T01:55:00.408Z,94.79
2022-08-03T01:56:00.381Z,94.39
2022-08-03T01:57:00.388Z,94.39
2022-08-03T01:58:05.247Z,94.29
2022-08-03T01:59:01.349Z,94.23
2022-08-03T02:00:00.398Z,94.39
2022-08-03T02:01:00.400Z,94.29
2022-08-03T02:02:27.535Z,95.00
2022-08-03T02:03:01.342Z,94.70
2022-08-03T02:04:01.296Z,94.79
2022-08-03T02:05:00.334Z,94.84
2022-08-03T02:06:58.930Z,94.84
2022-08-03T02:07:03.284Z,94.79
2022-08-03T02:08:00.265Z,94.94
2022-08-03T02:09:00.260Z,95.10
2022-08-03T02:10:00.259Z,95.35
2022-08-03T02:11:00.212Z,96.06
2022-08-03T02:12:00.208Z,95.65
2022-08-03T02:13:00.229Z,96.41
2022-08-03T02:14:00.202Z,96.00
2022-08-03T02:15:00.265Z,96.51
2022-08-03T02:16:00.168Z,97.11
2022-08-03T02:17:00.147Z,97.32
2022-08-03T02:18:00.153Z,97.32
2022-08-03T02:19:00.168Z,97.26
2022-08-03T02:20:00.161Z,97.42
2022-08-03T02:21:00.136Z,98.13
2022-08-03T02:22:01.407Z,97.87
2022-08-03T02:23:00.080Z,97.56
2022-08-03T02:24:00.076Z,97.62
2022-08-03T02:25:00.113Z,97.56
2022-08-03T02:26:00.190Z,97.56
2022-08-03T02:27:00.092Z,97.72
2022-08-03T02:28:00.021Z,97.42
2022-08-03T02:29:00.015Z,96.91
2022-08-03T02:30:00.061Z,97.32
2022-08-03T02:31:00.003Z,97.56
2022-08-03T02:32:00.009Z,97.32
2022-08-03T02:32:59.978Z,97.06
2022-08-03T02:33:59.951Z,97.47
2022-08-03T02:34:59.966Z,97.36
2022-08-03T02:35:59.976Z,97.47
2022-08-03T02:36:59.937Z,97.26
2022-08-03T02:37:59.946Z,98.07
2022-08-03T02:38:59.897Z,97.67
2022-08-03T02:40:00.264Z,98.28
2022-08-03T02:40:59.880Z,98.28
2022-08-03T02:41:59.874Z,98.18
2022-08-03T02:42:59.878Z,98.18
2022-08-03T02:44:07.165Z,96.96
2022-08-03T02:45:00.869Z,96.86
2022-08-03T02:45:59.831Z,96.61
2022-08-03T02:46:59.820Z,96.00
2022-08-03T02:47:59.811Z,96.41
2022-08-03T02:48:59.835Z,96.35
2022-08-03T02:50:00.897Z,96.45
2022-08-03T02:50:59.830Z,96.55
2022-08-03T02:51:59.748Z,96.55
2022-08-03T02:52:59.752Z,96.96
2022-08-03T02:53:59.756Z,97.61
2022-08-03T02:54:59.758Z,97.41
2022-08-03T02:55:59.760Z,97.41
2022-08-03T02:56:59.709Z,98.22
2022-08-03T02:58:01.617Z,97.81
2022-08-03T02:58:59.727Z,97.71
2022-08-03T02:59:59.702Z,98.12
2022-08-03T03:00:59.696Z,98.12
2022-08-03T03:01:59.637Z,97.71
2022-08-03T03:03:00.137Z,97.81
2022-08-03T03:03:59.624Z,97.61
2022-08-03T03:05:53.716Z,98.47
2022-08-03T03:06:00.586Z,98.43
2022-08-03T03:07:01.788Z,98.22
2022-08-03T03:07:59.577Z,98.02
2022-08-03T03:08:59.983Z,97.71
2022-08-03T03:09:59.553Z,97.56
2022-08-03T03:10:59.574Z,97.51
2022-08-03T03:11:59.536Z,97.76
2022-08-03T03:12:59.519Z,97.76
2022-08-03T03:13:59.499Z,97.86
2022-08-03T03:14:59.495Z,97.76
2022-08-03T03:15:59.534Z,98.37
2022-08-03T03:16:59.505Z,98.07
2022-08-03T03:17:59.474Z,98.77
2022-08-03T03:18:59.540Z,98.16
2022-08-03T03:19:59.430Z,98.77
2022-08-03T03:20:59.473Z,99.58
2022-08-03T03:21:59.429Z,99.38
2022-08-03T03:22:59.398Z,98.82
2022-08-03T03:23:59.387Z,98.68
2022-08-03T03:24:59.454Z,98.68
2022-08-03T03:25:59.374Z,98.72
2022-08-03T03:26:59.374Z,98.57
2022-08-03T03:27:59.371Z,98.21
2022-08-03T03:28:59.346Z,98.47
2022-08-03T03:29:59.372Z,98.21
2022-08-03T03:30:59.335Z,98.47
2022-08-03T03:31:59.308Z,98.77
2022-08-03T03:32:59.342Z,99.08
2022-08-03T03:33:59.325Z,99.13
2022-08-03T03:34:59.293Z,99.13
2022-08-03T03:35:59.258Z,99.02
2022-08-03T03:36:59.241Z,99.08
2022-08-03T03:37:59.237Z,98.97
2022-08-03T03:38:59.247Z,99.08
2022-08-03T03:40:00.272Z,99.58
2022-08-03T03:40:59.194Z,99.38
2022-08-03T03:41:59.196Z,99.58
2022-08-03T03:42:59.185Z,99.02
2022-08-03T03:43:59.173Z,98.97
2022-08-03T03:44:59.487Z,99.33
2022-08-03T03:45:59.188Z,99.49
2022-08-03T03:46:59.131Z,99.13
2022-08-03T03:47:59.144Z,99.33
2022-08-03T03:48:59.163Z,99.22
2022-08-03T03:49:59.112Z,99.38
2022-08-03T03:50:59.125Z,99.43
2022-08-03T03:51:59.104Z,99.43
2022-08-03T03:52:59.070Z,98.68
2022-08-03T03:53:59.054Z,98.68
2022-08-03T03:55:01.190Z,98.37
2022-08-03T03:56:02.837Z,98.16
2022-08-03T03:56:59.016Z,98.16
2022-08-03T03:57:59.007Z,98.07
2022-08-03T03:58:59.007Z,97.96
2022-08-03T03:59:58.989Z,98.07
2022-08-03T04:00:59.084Z,98.07
2022-08-03T04:01:59.476Z,97.96
2022-08-03T04:02:58.966Z,98.07
2022-08-03T04:03:58.982Z,98.07
2022-08-03T04:04:58.927Z,97.96
2022-08-03T04:05:58.929Z,98.37
2022-08-03T04:06:58.902Z,97.81
2022-08-03T04:07:58.896Z,97.35
2022-08-03T04:08:59.004Z,97.81
2022-08-03T04:09:59.202Z,97.51
2022-08-03T04:10:59.876Z,97.41
2022-08-03T04:11:58.857Z,97.51
2022-08-03T04:12:58.868Z,97.11
2022-08-03T04:14:02.016Z,97.71
2022-08-03T04:14:58.871Z,97.61
2022-08-03T04:15:58.799Z,97.31
2022-08-03T04:16:58.801Z,97.05
2022-08-03T04:17:58.811Z,97.61
2022-08-03T04:18:58.781Z,98.02
2022-08-03T04:19:58.811Z,97.86
2022-08-03T04:20:58.751Z,98.16
2022-08-03T04:21:58.771Z,98.16
2022-08-03T04:22:58.729Z,97.96
2022-08-03T04:23:58.712Z,98.27
2022-08-03T04:24:58.707Z,98.27
2022-08-03T04:25:58.772Z,98.27
2022-08-03T04:26:58.693Z,98.16
2022-08-03T04:28:28.279Z,98.37
2022-08-03T04:28:59.669Z,98.16
2022-08-03T04:29:58.653Z,98.16
2022-08-03T04:30:58.645Z,98.16
2022-08-03T04:31:58.667Z,97.25
2022-08-03T04:32:58.606Z,97.25
2022-08-03T04:33:58.619Z,97.41
2022-08-03T04:34:58.620Z,97.25
2022-08-03T04:36:02.844Z,97.25
2022-08-03T04:36:59.560Z,97.05
2022-08-03T04:37:58.567Z,97.41
2022-08-03T04:38:58.546Z,97.56
2022-08-03T04:39:58.557Z,98.37
2022-08-03T04:40:58.524Z,97.86
2022-08-03T04:42:07.718Z,98.37
2022-08-03T04:42:59.529Z,98.27
2022-08-03T04:43:58.483Z,98.02
2022-08-03T04:45:01.392Z,98.77
2022-08-03T04:45:58.493Z,98.47
2022-08-03T04:46:58.448Z,98.68
2022-08-03T04:47:58.434Z,99.28
2022-08-03T04:48:58.523Z,99.28
2022-08-03T04:49:58.418Z,99.13
2022-08-03T04:50:58.414Z,98.77
2022-08-03T04:51:58.435Z,99.44
2022-08-03T04:52:58.389Z,99.33
2022-08-03T04:53:58.372Z,99.44
2022-08-03T04:54:58.390Z,98.93
2022-08-03T04:55:58.357Z,99.33
2022-08-03T04:56:58.421Z,98.73
2022-08-03T04:57:58.337Z,98.52
2022-08-03T04:58:58.342Z,99.24
2022-08-03T05:00:03.092Z,99.13
2022-08-03T05:00:59.301Z,99.24
2022-08-03T05:01:58.391Z,99.19
2022-08-03T05:02:58.326Z,99.29
2022-08-03T05:03:58.276Z,99.29
2022-08-03T05:04:58.253Z,99.04
2022-08-03T05:06:01.646Z,99.39
2022-08-03T05:06:58.229Z,99.29
2022-08-03T05:07:58.233Z,98.63
2022-08-03T05:08:58.243Z,98.33
2022-08-03T05:10:03.251Z,98.54
2022-08-03T05:10:59.571Z,98.08
2022-08-03T05:11:58.165Z,97.98
2022-08-03T05:12:58.168Z,97.78
2022-08-03T05:13:58.176Z,97.78
2022-08-03T05:14:58.144Z,97.58
2022-08-03T05:15:58.147Z,97.43
2022-08-03T05:16:58.144Z,97.17
2022-08-03T05:17:58.105Z,97.17
2022-08-03T05:18:58.096Z,97.13
2022-08-03T05:19:58.076Z,96.82
2022-08-03T05:20:58.061Z,97.23
2022-08-03T05:21:58.118Z,97.23
2022-08-03T05:22:58.060Z,96.42
2022-08-03T05:23:58.047Z,96.67
2022-08-03T05:24:58.157Z,96.47
2022-08-03T05:25:58.017Z,96.67
2022-08-03T05:26:58.014Z,96.67
2022-08-03T05:27:58.065Z,96.22
2022-08-03T05:28:57.977Z,95.72
2022-08-03T05:30:31.130Z,96.12
2022-08-03T05:30:58.965Z,96.12
2022-08-03T05:31:57.955Z,96.83
2022-08-03T05:32:57.956Z,97.19
2022-08-03T05:33:57.963Z,96.83
2022-08-03T05:34:57.913Z,97.09
2022-08-03T05:36:03.563Z,96.89
2022-08-03T05:36:58.915Z,96.69
2022-08-03T05:37:57.870Z,96.98
2022-08-03T05:39:02.522Z,96.89
2022-08-03T05:39:58.880Z,96.48
2022-08-03T05:41:22.724Z,96.78
2022-08-03T05:41:58.873Z,96.34
2022-08-03T05:42:57.817Z,96.54
2022-08-03T05:43:57.808Z,96.03
2022-08-03T05:44:57.800Z,95.83
2022-08-03T05:46:11.687Z,95.73
2022-08-03T05:46:58.815Z,95.73
2022-08-03T05:47:57.789Z,95.98
2022-08-03T05:48:57.826Z,96.09
2022-08-03T05:49:57.738Z,96.69
2022-08-03T05:50:57.744Z,96.89
2022-08-03T05:52:11.019Z,96.45
2022-08-03T05:52:58.740Z,96.04
2022-08-03T05:53:57.746Z,96.55
2022-08-03T05:54:57.867Z,96.45
2022-08-03T05:56:03.490Z,95.94
2022-08-03T05:56:58.705Z,95.84
2022-08-03T05:57:57.665Z,95.74
2022-08-03T05:58:57.675Z,94.89
2022-08-03T05:59:58.806Z,94.48
2022-08-03T06:00:57.613Z,94.28
2022-08-03T06:01:57.794Z,94.18
2022-08-03T06:02:57.596Z,94.34
2022-08-03T06:03:57.654Z,94.54
2022-08-03T06:04:57.570Z,94.54
2022-08-03T06:06:00.228Z,94.49
2022-08-03T06:06:57.586Z,93.79
2022-08-03T06:07:57.558Z,93.79
2022-08-03T06:08:57.535Z,93.79
2022-08-03T06:10:37.408Z,93.29
2022-08-03T06:10:58.507Z,92.63
2022-08-03T06:11:57.502Z,93.14
2022-08-03T06:12:57.488Z,92.63
2022-08-03T06:13:57.468Z,92.49
2022-08-03T06:14:57.480Z,92.74
2022-08-03T06:15:57.484Z,92.90
2022-08-03T06:16:57.438Z,92.69
2022-08-03T06:18:01.487Z,92.69
2022-08-03T06:18:57.425Z,92.39
2022-08-03T06:19:57.408Z,92.59
2022-08-03T06:20:57.409Z,92.95
2022-08-03T06:21:57.423Z,92.65
2022-08-03T06:23:00.233Z,92.55
2022-08-03T06:23:57.363Z,91.85
2022-08-03T06:24:57.375Z,91.50
2022-08-03T06:25:57.386Z,91.50
2022-08-03T06:26:57.342Z,91.60
2022-08-03T06:27:57.318Z,91.19
2022-08-03T06:28:57.309Z,90.85
2022-08-03T06:29:57.312Z,90.75
2022-08-03T06:30:57.279Z,90.69
2022-08-03T06:31:57.324Z,90.65
2022-08-03T06:32:57.258Z,90.85
2022-08-03T06:34:34.145Z,89.60
2022-08-03T06:34:58.266Z,89.60
2022-08-03T06:35:57.251Z,89.76
2022-08-03T06:37:01.510Z,89.56
2022-08-03T06:37:57.218Z,89.15
2022-08-03T06:38:57.221Z,89.46
2022-08-03T06:39:57.193Z,89.56
2022-08-03T06:40:57.193Z,89.11
2022-08-03T06:41:57.203Z,89.01
2022-08-03T06:42:57.159Z,88.01
2022-08-03T06:44:03.806Z,88.21
2022-08-03T06:44:58.139Z,87.91
2022-08-03T06:45:57.172Z,87.96
2022-08-03T06:46:57.124Z,88.07
2022-08-03T06:47:57.115Z,88.37
2022-08-03T06:48:57.242Z,87.66
2022-08-03T06:50:12.642Z,87.37
2022-08-03T06:50:58.090Z,86.86
2022-08-03T06:52:03.427Z,87.22
2022-08-03T06:52:58.073Z,87.42
2022-08-03T06:53:57.033Z,86.22
2022-08-03T06:54:57.168Z,86.88
2022-08-03T06:55:57.005Z,86.38
2022-08-03T06:56:56.993Z,86.58
2022-08-03T06:58:00.154Z,85.47
2022-08-03T06:58:57.976Z,85.47
2022-08-03T07:00:10.306Z,83.27
2022-08-03T07:00:58.049Z,84.17
2022-08-03T07:01:56.942Z,84.13
2022-08-03T07:02:58.488Z,83.83
2022-08-03T07:03:56.927Z,82.29
2022-08-03T07:04:57.157Z,82.89
2022-08-03T07:05:56.897Z,83.99
2022-08-03T07:06:56.917Z,81.35
2022-08-03T07:07:56.871Z,82.05
2022-08-03T07:08:59.566Z,79.44
2022-08-03T07:09:58.325Z,80.35
2022-08-03T07:10:56.843Z,79.91
2022-08-03T07:11:56.876Z,79.71
2022-08-03T07:12:57.059Z,80.21
2022-08-03T07:13:56.800Z,80.07
2022-08-03T07:15:00.695Z,79.57
2022-08-03T07:15:56.873Z,79.27
2022-08-03T07:16:56.782Z,80.27
2022-08-03T07:17:56.779Z,80.17
2022-08-03T07:18:56.745Z,79.97
2022-08-03T07:19:56.734Z,78.56
2022-08-03T07:20:56.763Z,78.43
2022-08-03T07:21:56.772Z,78.73
2022-08-03T07:22:57.753Z,78.63
2022-08-03T07:23:56.689Z,78.33
2022-08-03T07:24:56.690Z,77.33
2022-08-03T07:25:56.671Z,76.49
2022-08-03T07:26:56.671Z,75.89
2022-08-03T07:27:56.659Z,75.89
2022-08-03T07:28:56.664Z,75.85
2022-08-03T07:29:56.630Z,75.65
2022-08-03T07:30:56.609Z,74.69
2022-08-03T07:31:56.605Z,75.65
2022-08-03T07:32:56.619Z,76.65
2022-08-03T07:33:56.622Z,74.72
2022-08-03T07:35:00.498Z,74.72
2022-08-03T07:35:56.558Z,74.22
2022-08-03T07:36:56.546Z,73.82
2022-08-03T07:37:56.553Z,73.92
2022-08-03T07:38:56.559Z,73.92
2022-08-03T07:39:56.598Z,75.59
2022-08-03T07:40:56.500Z,74.68
2022-08-03T07:41:56.493Z,73.28
2022-08-03T07:42:56.480Z,72.89
2022-08-03T07:43:56.489Z,73.15
2022-08-03T07:44:56.500Z,72.65
2022-08-03T07:45:56.464Z,73.35
2022-08-03T07:46:56.707Z,72.65
2022-08-03T07:47:56.420Z,73.55
2022-08-03T07:48:56.455Z,72.32
2022-08-03T07:49:56.402Z,72.62
2022-08-03T07:50:56.429Z,73.52
2022-08-03T07:51:56.402Z,72.42
2022-08-03T07:52:56.410Z,73.28
2022-08-03T07:53:56.367Z,72.19
2022-08-03T07:54:56.355Z,72.92
2022-08-03T07:55:56.338Z,71.78
2022-08-03T07:56:56.335Z,72.98
2022-08-03T07:57:56.353Z,72.28
2022-08-03T07:58:56.299Z,71.25
2022-08-03T07:59:57.158Z,71.45
2022-08-03T08:00:57.351Z,71.55
2022-08-03T08:01:56.278Z,71.85
2022-08-03T08:02:56.271Z,70.72
2022-08-03T08:03:56.299Z,71.15
2022-08-03T08:04:56.237Z,69.73
2022-08-03T08:05:56.229Z,69.53
2022-08-03T08:06:56.213Z,70.03
2022-08-03T08:07:56.232Z,70.22
2022-08-03T08:08:56.226Z,71.02
2022-08-03T08:09:56.183Z,69.82
2022-08-03T08:10:57.987Z,69.92
2022-08-03T08:11:56.172Z,69.32
2022-08-03T08:12:56.149Z,69.79
2022-08-03T08:13:56.162Z,68.60
2022-08-03T08:14:56.164Z,66.08
2022-08-03T08:15:56.122Z,66.27
2022-08-03T08:16:56.107Z,67.47
2022-08-03T08:17:56.103Z,67.93
2022-08-03T08:18:56.092Z,66.94
2022-08-03T08:19:56.107Z,66.05
2022-08-03T08:20:56.105Z,66.35
2022-08-03T08:22:02.793Z,67.24
2022-08-03T08:22:57.043Z,68.04
2022-08-03T08:23:57.770Z,66.01
2022-08-03T08:24:56.030Z,65.64
2022-08-03T08:25:56.042Z,65.64
2022-08-03T08:26:55.996Z,66.31
2022-08-03T08:28:30.387Z,64.82
2022-08-03T08:28:57.025Z,65.91
2022-08-03T08:30:00.582Z,66.01
2022-08-03T08:30:57.049Z,65.42
2022-08-03T08:31:55.942Z,66.21
2022-08-03T08:32:55.985Z,64.19
2022-08-03T08:34:04.547Z,64.49
2022-08-03T08:34:56.918Z,64.19
2022-08-03T08:35:55.901Z,64.49
2022-08-03T08:36:55.909Z,63.17
2022-08-03T08:37:55.908Z,64.26
2022-08-03T08:38:55.946Z,64.66
2022-08-03T08:39:55.853Z,63.24
2022-08-03T08:40:55.870Z,63.43
2022-08-03T08:41:55.876Z,63.64
2022-08-03T08:42:58.706Z,64.23
2022-08-03T08:44:00.008Z,64.00
2022-08-03T08:44:55.870Z,63.04
2022-08-03T08:45:55.796Z,64.50
2022-08-03T08:46:55.774Z,62.91
2022-08-03T08:48:00.356Z,62.61
2022-08-03T08:48:56.832Z,62.91
2022-08-03T08:50:09.194Z,63.10
2022-08-03T08:50:56.767Z,63.77
2022-08-03T08:52:00.893Z,61.99
2022-08-03T08:52:56.730Z,61.89
2022-08-03T08:53:55.710Z,62.48
2022-08-03T08:54:55.728Z,62.29
2022-08-03T08:55:55.756Z,62.48
2022-08-03T08:56:55.670Z,61.89
2022-08-03T08:57:55.690Z,61.99
2022-08-03T08:58:55.691Z,62.48
2022-08-03T08:59:57.334Z,61.86
2022-08-03T09:00:55.714Z,62.15
2022-08-03T09:01:55.667Z,61.86
2022-08-03T09:02:55.612Z,60.47
2022-08-03T09:03:55.610Z,59.97
2022-08-03T09:04:55.628Z,60.27
2022-08-03T09:05:56.403Z,60.27
2022-08-03T09:07:18.714Z,61.13
2022-08-03T09:07:56.580Z,60.83
2022-08-03T09:08:55.541Z,60.34
2022-08-03T09:10:10.131Z,59.55
2022-08-03T09:10:56.512Z,59.62
2022-08-03T09:12:13.734Z,59.12
2022-08-03T09:12:56.562Z,59.22
2022-08-03T09:13:55.487Z,59.81
2022-08-03T09:15:16.089Z,60.51
2022-08-03T09:16:01.529Z,59.92
2022-08-03T09:16:56.450Z,59.81
2022-08-03T09:17:55.480Z,60.41
2022-08-03T09:18:55.476Z,60.11
2022-08-03T09:20:03.759Z,59.92
2022-08-03T09:20:56.424Z,59.72
2022-08-03T09:21:55.407Z,58.95
2022-08-03T09:22:55.408Z,60.64
2022-08-03T09:24:02.151Z,59.65
2022-08-03T09:25:21.669Z,60.64
2022-08-03T09:25:56.355Z,60.61
2022-08-03T09:26:55.380Z,60.51
2022-08-03T09:27:55.345Z,60.91
2022-08-03T09:29:01.649Z,59.72
2022-08-03T09:29:56.326Z,59.79
2022-08-03T09:30:55.299Z,59.79
2022-08-03T09:31:55.397Z,60.28
2022-08-03T09:32:55.276Z,59.62
2022-08-03T09:33:55.317Z,58.53
2022-08-03T09:34:58.107Z,59.79
2022-08-03T09:35:57.629Z,56.92
2022-08-03T09:36:55.954Z,55.53
2022-08-03T09:38:12.085Z,55.24
2022-08-03T09:38:56.227Z,55.53
2022-08-03T09:39:55.224Z,55.73
2022-08-03T09:40:59.460Z,56.32
2022-08-03T09:41:56.216Z,56.92
2022-08-03T09:42:55.186Z,56.89
2022-08-03T09:43:55.187Z,57.39
2022-08-03T09:44:55.202Z,57.02
2022-08-03T09:45:55.158Z,57.68
2022-08-03T09:46:55.174Z,56.79
2022-08-03T09:47:55.118Z,57.18
2022-08-03T09:48:55.451Z,56.86
2022-08-03T09:49:55.089Z,57.75
2022-08-03T09:50:58.657Z,56.96
2022-08-03T09:52:32.007Z,55.65
2022-08-03T09:52:56.065Z,56.14
2022-08-03T09:53:57.307Z,55.35
2022-08-03T09:54:55.878Z,55.55
2022-08-03T09:56:34.595Z,54.96
2022-08-03T09:56:56.062Z,56.14
2022-08-03T09:57:55.044Z,55.15
2022-08-03T09:58:55.000Z,55.94
2022-08-03T10:00:02.961Z,56.24
2022-08-03T10:00:56.074Z,55.94
2022-08-03T10:01:55.010Z,54.76
2022-08-03T10:02:54.981Z,55.85
2022-08-03T10:04:03.319Z,55.85
2022-08-03T10:04:55.956Z,55.35
2022-08-03T10:05:59.370Z,54.93
2022-08-03T10:06:54.904Z,55.72
2022-08-03T10:07:54.951Z,54.44
2022-08-03T10:08:54.902Z,53.64
2022-08-03T10:10:31.842Z,53.15
2022-08-03T10:10:55.897Z,54.73
2022-08-03T10:11:54.881Z,55.92
2022-08-03T10:12:54.883Z,54.93
2022-08-03T10:13:57.971Z,53.85
2022-08-03T10:14:55.824Z,53.85
2022-08-03T10:16:21.969Z,53.55
2022-08-03T10:16:55.824Z,53.55
2022-08-03T10:17:54.817Z,53.45
2022-08-03T10:18:54.784Z,53.94
2022-08-03T10:19:54.778Z,53.64
2022-08-03T10:20:54.753Z,54.04
2022-08-03T10:21:54.750Z,52.95
2022-08-03T10:22:54.750Z,53.64
2022-08-03T10:23:54.751Z,53.75
2022-08-03T10:24:54.722Z,53.35
2022-08-03T10:25:54.694Z,53.75
2022-08-03T10:26:54.776Z,54.04
2022-08-03T10:27:54.691Z,54.93
2022-08-03T10:28:54.679Z,53.42
2022-08-03T10:29:54.699Z,53.33
2022-08-03T10:30:54.664Z,53.52
2022-08-03T10:31:57.684Z,52.14
2022-08-03T10:32:54.765Z,52.63
2022-08-03T10:33:54.622Z,53.20
2022-08-03T10:35:00.050Z,51.42
2022-08-03T10:35:55.618Z,51.72
2022-08-03T10:36:54.591Z,52.91
2022-08-03T10:37:56.933Z,52.51
2022-08-03T10:38:54.607Z,53.27
2022-08-03T10:39:54.547Z,51.62
2022-08-03T10:40:58.935Z,51.82
2022-08-03T10:41:54.556Z,51.52
2022-08-03T10:42:54.544Z,53.39
2022-08-03T10:43:54.546Z,52.51
2022-08-03T10:44:54.554Z,53.10
2022-08-03T10:45:54.505Z,52.21
2022-08-03T10:46:54.465Z,49.84
2022-08-03T10:47:54.464Z,49.77
2022-08-03T10:48:54.526Z,49.35
2022-08-03T10:49:54.477Z,49.84
2022-08-03T10:50:54.449Z,49.67
2022-08-03T10:51:54.589Z,49.15
2022-08-03T10:52:54.436Z,51.75
2022-08-03T10:53:55.771Z,51.82
2022-08-03T10:54:54.420Z,51.35
2022-08-03T10:55:54.379Z,49.87
2022-08-03T10:56:54.820Z,49.65
2022-08-03T10:57:58.358Z,49.45
2022-08-03T10:58:57.998Z,50.76
2022-08-03T10:59:54.354Z,50.83
2022-08-03T11:00:54.357Z,50.93
2022-08-03T11:01:58.903Z,51.03
2022-08-03T11:02:55.296Z,49.45
2022-08-03T11:03:54.280Z,50.43
2022-08-03T11:04:54.286Z,47.87
2022-08-03T11:05:54.296Z,49.74
2022-08-03T11:06:54.289Z,50.43
2022-08-03T11:07:54.577Z,49.74
2022-08-03T11:08:54.262Z,49.25
2022-08-03T11:09:54.272Z,48.36
2022-08-03T11:10:54.226Z,49.74
2022-08-03T11:11:54.251Z,48.56
2022-08-03T11:12:54.198Z,48.46
2022-08-03T11:13:54.174Z,47.47
2022-08-03T11:14:54.210Z,47.94
2022-08-03T11:15:54.197Z,47.85
2022-08-03T11:16:55.140Z,47.65
2022-08-03T11:17:56.185Z,47.85
2022-08-03T11:18:55.196Z,48.24
2022-08-03T11:19:56.782Z,49.72
2022-08-03T11:20:54.152Z,47.65
2022-08-03T11:21:54.124Z,48.63
2022-08-03T11:22:54.093Z,48.54
2022-08-03T11:24:04.942Z,48.24
2022-08-03T11:24:55.079Z,46.47
2022-08-03T11:25:55.380Z,46.94
2022-08-03T11:26:54.129Z,45.83
2022-08-03T11:27:54.082Z,46.22
2022-08-03T11:28:54.008Z,45.73
2022-08-03T11:29:53.994Z,44.82
2022-08-03T11:30:54.071Z,45.12
2022-08-03T11:31:54.011Z,44.53
2022-08-03T11:32:53.972Z,44.92
2022-08-03T11:33:53.970Z,45.61
2022-08-03T11:34:53.982Z,45.24
2022-08-03T11:35:53.954Z,45.63
2022-08-03T11:36:53.960Z,46.22
2022-08-03T11:38:03.083Z,46.03
2022-08-03T11:38:54.956Z,46.62
2022-08-03T11:39:53.923Z,47.63
2022-08-03T11:40:53.875Z,47.50
2022-08-03T11:41:53.883Z,46.12
2022-08-03T11:42:53.878Z,46.99
2022-08-03T11:43:53.850Z,46.40
2022-08-03T11:44:53.902Z,46.59
2022-08-03T11:45:53.866Z,45.31
2022-08-03T11:46:53.898Z,46.00
2022-08-03T11:47:53.818Z,46.00
2022-08-03T11:48:53.880Z,44.94
2022-08-03T11:49:53.788Z,44.84
2022-08-03T11:50:53.818Z,44.45
2022-08-03T11:51:53.799Z,43.07
2022-08-03T11:52:53.768Z,43.86
2022-08-03T11:53:53.743Z,44.15
2022-08-03T11:54:56.607Z,44.74
2022-08-03T11:55:53.730Z,43.37
2022-08-03T11:56:53.732Z,44.84
2022-08-03T11:59:01.191Z,44.65
2022-08-03T11:59:17.703Z,43.86
2022-08-03T11:59:54.689Z,43.44
2022-08-03T12:00:53.684Z,43.34
2022-08-03T12:01:53.701Z,43.93
2022-08-03T12:02:53.725Z,43.05
2022-08-03T12:03:53.619Z,43.15
2022-08-03T12:04:53.617Z,44.13
2022-08-03T12:05:53.679Z,43.64
2022-08-03T12:06:53.639Z,44.03
2022-08-03T12:08:03.689Z,43.64
2022-08-03T12:08:54.594Z,43.54
2022-08-03T12:09:53.581Z,44.23
2022-08-03T12:10:53.590Z,44.72
2022-08-03T12:12:00.244Z,40.00
2022-08-03T12:12:54.558Z,40.58
2022-08-03T12:14:27.079Z,42.16
2022-08-03T12:14:54.568Z,43.24
2022-08-03T12:15:53.522Z,44.82
2022-08-03T12:16:53.516Z,41.38
2022-08-03T12:17:57.607Z,42.24
2022-08-03T12:18:53.491Z,43.52
2022-08-03T12:19:53.484Z,44.11
2022-08-03T12:20:53.491Z,44.03
2022-08-03T12:21:56.906Z,42.54
2022-08-03T12:22:53.467Z,42.44
2022-08-03T12:23:53.408Z,42.24
2022-08-03T12:24:53.848Z,42.04
2022-08-03T12:25:53.384Z,42.54
2022-08-03T12:26:59.263Z,43.03
2022-08-03T12:27:54.397Z,41.94
2022-08-03T12:28:53.388Z,40.56
2022-08-03T12:29:57.015Z,41.65
2022-08-03T12:30:54.983Z,42.02
2022-08-03T12:31:53.364Z,40.25
2022-08-03T12:32:53.333Z,40.16
2022-08-03T12:33:53.306Z,41.33
2022-08-03T12:34:53.339Z,40.16
2022-08-03T12:35:54.546Z,40.05
2022-08-03T12:36:53.296Z,40.05
2022-08-03T12:37:53.256Z,39.86
2022-08-03T12:38:53.247Z,40.45
2022-08-03T12:40:03.547Z,39.64
2022-08-03T12:40:54.237Z,40.35
2022-08-03T12:41:53.233Z,38.97
2022-08-03T12:42:53.192Z,40.35
2022-08-03T12:43:53.201Z,40.05
2022-08-03T12:44:54.614Z,40.33
2022-08-03T12:45:53.205Z,40.43
2022-08-03T12:46:53.211Z,39.56
2022-08-03T12:47:53.155Z,40.25
2022-08-03T12:48:53.216Z,38.95
2022-08-03T12:49:53.182Z,40.82
2022-08-03T12:50:53.715Z,39.54
2022-08-03T12:51:53.104Z,39.44